sensor_id;sensor_type;location;lat;lon;timestamp;pressure;altitude;pressure_sealevel;temperature;humidity
18697;BME280;22617;43.690;27.956;2023-03-21T00:03:05;98914.03;;;6.42;100.00
18697;BME280;22617;43.690;27.956;2023-03-21T00:08:11;98907.97;;;6.42;100.00
18697;BME280;22617;43.690;27.956;2023-03-21T00:13:15;98892.47;;;6.48;100.00
18697;BME280;22617;43.690;27.956;2023-03-21T00:18:20;98892.47;;;6.45;100.00
18697;BME280;22617;43.690;27.956;2023-03-21T00:23:26;98894.06;;;6.35;100.00
18697;BME280;22617;43.690;27.956;2023-03-21T00:28:29;98895.03;;;6.45;100.00
18697;BME280;22617;43.690;27.956;2023-03-21T00:33:33;98887.19;;;6.36;100.00
18697;BME280;22617;43.690;27.956;2023-03-21T00:38:39;98878.56;;;6.37;100.00
18697;BME280;22617;43.690;27.956;2023-03-21T00:43:43;98870.72;;;6.28;100.00
18697;BME280;22617;43.690;27.956;2023-03-21T00:48:47;98860.28;;;6.22;100.00
18697;BME280;22617;43.690;27.956;2023-03-21T00:53:53;98849.13;;;6.29;100.00
18697;BME280;22617;43.690;27.956;2023-03-21T00:59:00;98843.97;;;6.29;100.00
18697;BME280;22617;43.690;27.956;2023-03-21T01:04:04;98836.16;;;6.24;100.00
18697;BME280;22617;43.690;27.956;2023-03-21T01:09:16;98833.69;;;6.35;100.00
18697;BME280;22617;43.690;27.956;2023-03-21T01:14:22;98830.09;;;6.24;100.00
18697;BME280;22617;43.690;27.956;2023-03-21T01:19:27;98819.09;;;6.41;100.00
18697;BME280;22617;43.690;27.956;2023-03-21T01:24:52;98809.50;;;6.31;100.00
18697;BME280;22617;43.690;27.956;2023-03-21T01:30:10;98807.06;;;6.46;100.00
18697;BME280;22617;43.690;27.956;2023-03-21T01:35:23;98816.47;;;6.40;100.00
18697;BME280;22617;43.690;27.956;2023-03-21T01:40:30;98813.81;;;6.34;100.00
18697;BME280;22617;43.690;27.956;2023-03-21T01:51:51;98808.91;;;6.60;100.00
18697;BME280;22617;43.690;27.956;2023-03-21T01:57:07;98826.81;;;6.38;100.00
18697;BME280;22617;43.690;27.956;2023-03-21T02:02:17;98825.91;;;6.35;100.00
18697;BME280;22617;43.690;27.956;2023-03-21T02:07:57;98822.50;;;6.37;100.00
18697;BME280;22617;43.690;27.956;2023-03-21T02:13:04;98816.47;;;6.40;100.00
18697;BME280;22617;43.690;27.956;2023-03-21T02:18:18;98811.31;;;6.41;100.00
18697;BME280;22617;43.690;27.956;2023-03-21T02:23:48;98824.13;;;6.28;100.00
18697;BME280;22617;43.690;27.956;2023-03-21T02:29:04;98826.78;;;6.32;100.00
18697;BME280;22617;43.690;27.956;2023-03-21T02:34:23;98814.72;;;6.36;100.00
18697;BME280;22617;43.690;27.956;2023-03-21T02:39:49;98805.25;;;6.39;100.00
18697;BME280;22617;43.690;27.956;2023-03-21T02:45:01;98813.81;;;6.32;100.00
18697;BME280;22617;43.690;27.956;2023-03-21T02:50:13;98827.53;;;6.24;100.00
18697;BME280;22617;43.690;27.956;2023-03-21T02:55:23;98836.19;;;6.29;100.00
18697;BME280;22617;43.690;27.956;2023-03-21T03:00:33;98819.81;;;6.27;100.00
18697;BME280;22617;43.690;27.956;2023-03-21T03:05:43;98804.34;;;6.33;100.00
18697;BME280;22617;43.690;27.956;2023-03-21T03:10:59;98808.69;;;6.38;100.00
18697;BME280;22617;43.690;27.956;2023-03-21T03:16:16;98804.38;;;6.36;100.00
18697;BME280;22617;43.690;27.956;2023-03-21T03:21:28;98807.88;;;6.41;100.00
18697;BME280;22617;43.690;27.956;2023-03-21T03:26:37;98801.75;;;6.34;100.00
18697;BME280;22617;43.690;27.956;2023-03-21T03:31:48;98808.69;;;6.38;100.00
18697;BME280;22617;43.690;27.956;2023-03-21T03:36:56;98790.50;;;6.31;100.00
18697;BME280;22617;43.690;27.956;2023-03-21T03:42:05;98791.41;;;6.33;100.00
18697;BME280;22617;43.690;27.956;2023-03-21T03:47:37;98782.00;;;6.44;100.00
18697;BME280;22617;43.690;27.956;2023-03-21T03:53:03;98768.13;;;6.33;100.00
18697;BME280;22617;43.690;27.956;2023-03-21T03:58:22;98782.81;;;6.38;100.00
18697;BME280;22617;43.690;27.956;2023-03-21T04:03:46;98786.31;;;6.43;100.00
18697;BME280;22617;43.690;27.956;2023-03-21T04:09:00;98788.00;;;6.40;100.00
18697;BME280;22617;43.690;27.956;2023-03-21T04:14:21;98776.09;;;6.58;100.00
18697;BME280;22617;43.690;27.956;2023-03-21T04:19:29;98767.44;;;6.58;100.00
18697;BME280;22617;43.690;27.956;2023-03-21T04:24:33;98770.00;;;6.52;100.00
18697;BME280;22617;43.690;27.956;2023-03-21T04:29:40;98774.41;;;6.64;100.00
18697;BME280;22617;43.690;27.956;2023-03-21T04:35:19;98770.13;;;6.66;100.00
18697;BME280;22617;43.690;27.956;2023-03-21T04:40:23;98765.91;;;6.83;100.00
18697;BME280;22617;43.690;27.956;2023-03-21T04:45:30;98775.44;;;6.85;100.00
18697;BME280;22617;43.690;27.956;2023-03-21T04:50:34;98780.59;;;6.82;100.00
18697;BME280;22617;43.690;27.956;2023-03-21T04:55:39;98789.25;;;6.87;100.00
18697;BME280;22617;43.690;27.956;2023-03-21T05:00:44;98792.00;;;7.10;100.00
18697;BME280;22617;43.690;27.956;2023-03-21T05:05:48;98762.66;;;7.16;100.00
18697;BME280;22617;43.690;27.956;2023-03-21T05:10:53;98761.00;;;7.24;100.00
18697;BME280;22617;43.690;27.956;2023-03-21T05:16:01;98777.31;;;7.08;100.00
18697;BME280;22617;43.690;27.956;2023-03-21T05:21:05;98792.97;;;7.26;100.00
18697;BME280;22617;43.690;27.956;2023-03-21T05:26:14;98786.94;;;7.34;100.00
18697;BME280;22617;43.690;27.956;2023-03-21T05:31:27;98798.22;;;7.38;100.00
18697;BME280;22617;43.690;27.956;2023-03-21T05:36:40;98812.06;;;7.38;100.00
18697;BME280;22617;43.690;27.956;2023-03-21T05:41:45;98812.09;;;7.46;100.00
18697;BME280;22617;43.690;27.956;2023-03-21T05:46:50;98803.53;;;7.62;100.00
18697;BME280;22617;43.690;27.956;2023-03-21T05:52:00;98806.19;;;7.79;100.00
18697;BME280;22617;43.690;27.956;2023-03-21T05:57:04;98820.91;;;7.84;100.00
18697;BME280;22617;43.690;27.956;2023-03-21T06:02:25;98846.88;;;7.91;100.00
18697;BME280;22617;43.690;27.956;2023-03-21T06:07:33;98839.09;;;7.86;100.00
18697;BME280;22617;43.690;27.956;2023-03-21T06:12:39;98826.16;;;8.04;100.00
18697;BME280;22617;43.690;27.956;2023-03-21T06:18:17;98839.13;;;8.01;100.00
18697;BME280;22617;43.690;27.956;2023-03-21T06:23:30;98830.47;;;7.99;100.00
18697;BME280;22617;43.690;27.956;2023-03-21T06:28:35;98838.25;;;7.98;100.00
18697;BME280;22617;43.690;27.956;2023-03-21T06:33:40;98819.25;;;8.12;100.00
18697;BME280;22617;43.690;27.956;2023-03-21T06:38:43;98808.00;;;8.12;100.00
18697;BME280;22617;43.690;27.956;2023-03-21T06:43:48;98803.69;;;8.15;99.13
18697;BME280;22617;43.690;27.956;2023-03-21T06:48:56;98826.16;;;8.06;99.04
18697;BME280;22617;43.690;27.956;2023-03-21T06:54:03;98840.03;;;8.17;99.31
18697;BME280;22617;43.690;27.956;2023-03-21T06:59:14;98833.22;;;8.37;98.88
18697;BME280;22617;43.690;27.956;2023-03-21T07:04:29;98853.97;;;8.40;99.06
18697;BME280;22617;43.690;27.956;2023-03-21T07:09:33;98851.38;;;8.37;98.83
18697;BME280;22617;43.690;27.956;2023-03-21T07:14:39;98834.09;;;8.42;98.43
18697;BME280;22617;43.690;27.956;2023-03-21T07:19:44;98847.09;;;8.53;98.16
18697;BME280;22617;43.690;27.956;2023-03-21T07:24:48;98852.28;;;8.62;98.07
18697;BME280;22617;43.690;27.956;2023-03-21T07:30:08;98872.25;;;8.86;98.38
18697;BME280;22617;43.690;27.956;2023-03-21T07:35:15;98868.78;;;9.03;96.41
18697;BME280;22617;43.690;27.956;2023-03-21T07:40:19;98867.06;;;8.92;95.62
18697;BME280;22617;43.690;27.956;2023-03-21T07:45:24;98866.16;;;8.74;95.94
18697;BME280;22617;43.690;27.956;2023-03-21T07:50:29;98866.19;;;8.90;95.33
18697;BME280;22617;43.690;27.956;2023-03-21T07:55:33;98868.75;;;8.97;95.33
18697;BME280;22617;43.690;27.956;2023-03-21T08:00:37;98877.44;;;9.13;94.63
18697;BME280;22617;43.690;27.956;2023-03-21T08:05:42;98879.19;;;9.20;94.47
18697;BME280;22617;43.690;27.956;2023-03-21T08:10:46;98877.41;;;9.48;93.72
18697;BME280;22617;43.690;27.956;2023-03-21T08:15:50;98865.16;;;9.79;92.88
18697;BME280;22617;43.690;27.956;2023-03-21T08:20:55;98880.88;;;9.32;92.06
18697;BME280;22617;43.690;27.956;2023-03-21T08:25:59;98870.41;;;9.71;92.07
18697;BME280;22617;43.690;27.956;2023-03-21T08:31:06;98866.00;;;9.90;90.83
18697;BME280;22617;43.690;27.956;2023-03-21T08:36:11;98850.28;;;10.26;89.38
18697;BME280;22617;43.690;27.956;2023-03-21T08:41:15;98834.47;;;10.50;88.35
18697;BME280;22617;43.690;27.956;2023-03-21T08:46:20;98833.78;;;10.15;88.02
18697;BME280;22617;43.690;27.956;2023-03-21T08:51:25;98826.06;;;9.98;88.87
18697;BME280;22617;43.690;27.956;2023-03-21T08:56:28;98840.88;;;9.83;90.60
18697;BME280;22617;43.690;27.956;2023-03-21T09:01:33;98833.97;;;9.71;91.45
18697;BME280;22617;43.690;27.956;2023-03-21T09:06:39;98871.31;;;9.62;91.37
18697;BME280;22617;43.690;27.956;2023-03-21T09:11:48;98842.69;;;9.56;91.58
18697;BME280;22617;43.690;27.956;2023-03-21T09:16:53;98855.69;;;9.66;91.76
18697;BME280;22617;43.690;27.956;2023-03-21T09:21:58;98847.78;;;9.88;90.88
18697;BME280;22617;43.690;27.956;2023-03-21T09:27:02;98840.72;;;10.22;89.60
18697;BME280;22617;43.690;27.956;2023-03-21T09:32:06;98853.66;;;10.40;87.83
18697;BME280;22617;43.690;27.956;2023-03-21T09:37:11;98845.63;;;10.72;86.36
18697;BME280;22617;43.690;27.956;2023-03-21T09:42:26;98859.59;;;10.61;86.70
18697;BME280;22617;43.690;27.956;2023-03-21T09:47:37;98848.25;;;10.74;85.89
18697;BME280;22617;43.690;27.956;2023-03-21T09:52:55;98856.06;;;10.71;86.08
18697;BME280;22617;43.690;27.956;2023-03-21T09:58:03;98852.59;;;10.73;85.68
18697;BME280;22617;43.690;27.956;2023-03-21T10:03:15;98856.94;;;10.73;86.46
18697;BME280;22617;43.690;27.956;2023-03-21T10:08:24;98863.88;;;10.71;87.28
18697;BME280;22617;43.690;27.956;2023-03-21T10:13:32;98857.03;;;10.56;86.87
18697;BME280;22617;43.690;27.956;2023-03-21T10:18:36;98853.16;;;11.10;85.62
18697;BME280;22617;43.690;27.956;2023-03-21T10:23:43;98855.97;;;10.84;85.04
18697;BME280;22617;43.690;27.956;2023-03-21T10:28:48;98854.09;;;10.99;84.53
18697;BME280;22617;43.690;27.956;2023-03-21T10:33:56;98852.97;;;11.31;84.83
18697;BME280;22617;43.690;27.956;2023-03-21T10:39:07;98845.56;;;11.79;82.79
18697;BME280;22617;43.690;27.956;2023-03-21T10:44:16;98835.50;;;12.17;81.89
18697;BME280;22617;43.690;27.956;2023-03-21T10:49:20;98834.59;;;12.18;80.90
18697;BME280;22617;43.690;27.956;2023-03-21T10:54:28;98831.44;;;11.92;80.58
18697;BME280;22617;43.690;27.956;2023-03-21T10:59:36;98827.09;;;11.93;81.87
18697;BME280;22617;43.690;27.956;2023-03-21T11:04:42;98826.19;;;11.95;81.78
18697;BME280;22617;43.690;27.956;2023-03-21T11:09:53;98827.31;;;12.97;80.00
18697;BME280;22617;43.690;27.956;2023-03-21T11:14:57;98817.34;;;13.22;77.58
18697;BME280;22617;43.690;27.956;2023-03-21T11:20:17;98812.88;;;13.28;77.19
18697;BME280;22617;43.690;27.956;2023-03-21T11:25:29;98810.41;;;13.67;74.84
18697;BME280;22617;43.690;27.956;2023-03-21T11:30:35;98802.84;;;13.50;74.92
18697;BME280;22617;43.690;27.956;2023-03-21T11:35:39;98800.72;;;13.70;75.36
18697;BME280;22617;43.690;27.956;2023-03-21T11:40:52;98793.09;;;13.58;74.42
18697;BME280;22617;43.690;27.956;2023-03-21T11:45:56;98790.47;;;13.58;75.88
18697;BME280;22617;43.690;27.956;2023-03-21T11:51:03;98782.34;;;13.72;74.25
18697;BME280;22617;43.690;27.956;2023-03-21T11:56:21;98777.53;;;13.50;75.93
18697;BME280;22617;43.690;27.956;2023-03-21T12:01:32;98772.59;;;13.78;74.68
18697;BME280;22617;43.690;27.956;2023-03-21T12:06:40;98771.34;;;13.96;74.73
18697;BME280;22617;43.690;27.956;2023-03-21T12:11:56;98767.63;;;14.08;75.35
18697;BME280;22617;43.690;27.956;2023-03-21T12:17:08;98765.19;;;13.98;73.94
18697;BME280;22617;43.690;27.956;2023-03-21T12:22:24;98750.66;;;14.24;73.58
18697;BME280;22617;43.690;27.956;2023-03-21T12:27:38;98751.06;;;14.06;73.18
18697;BME280;22617;43.690;27.956;2023-03-21T12:32:54;98736.91;;;14.14;73.22
18697;BME280;22617;43.690;27.956;2023-03-21T12:38:09;98735.16;;;14.15;72.84
18697;BME280;22617;43.690;27.956;2023-03-21T12:43:26;98735.19;;;14.12;72.90
18697;BME280;22617;43.690;27.956;2023-03-21T12:48:39;98725.94;;;13.57;73.84
18697;BME280;22617;43.690;27.956;2023-03-21T12:53:50;98726.28;;;13.39;75.13
18697;BME280;22617;43.690;27.956;2023-03-21T12:59:03;98734.78;;;13.02;75.49
18697;BME280;22617;43.690;27.956;2023-03-21T13:09:44;98727.63;;;12.63;77.81
18697;BME280;22617;43.690;27.956;2023-03-21T13:14:58;98728.06;;;12.37;78.59
18697;BME280;22617;43.690;27.956;2023-03-21T13:20:16;98720.41;;;12.27;80.28
18697;BME280;22617;43.690;27.956;2023-03-21T13:25:24;98717.09;;;12.14;79.47
18697;BME280;22617;43.690;27.956;2023-03-21T13:30:31;98710.63;;;11.79;81.03
18697;BME280;22617;43.690;27.956;2023-03-21T13:35:36;98717.66;;;11.74;80.76
18697;BME280;22617;43.690;27.956;2023-03-21T13:40:44;98726.41;;;11.67;81.57
18697;BME280;22617;43.690;27.956;2023-03-21T13:45:52;98713.66;;;11.45;81.53
18697;BME280;22617;43.690;27.956;2023-03-21T13:51:00;98731.31;;;11.21;82.73
18697;BME280;22617;43.690;27.956;2023-03-21T13:56:28;98732.09;;;11.29;82.01
18697;BME280;22617;43.690;27.956;2023-03-21T14:01:37;98726.28;;;11.03;84.03
18697;BME280;22617;43.690;27.956;2023-03-21T14:06:46;98731.59;;;10.97;83.61
18697;BME280;22617;43.690;27.956;2023-03-21T14:11:52;98721.34;;;10.79;84.25
18697;BME280;22617;43.690;27.956;2023-03-21T14:17:13;98715.41;;;10.62;84.01
18697;BME280;22617;43.690;27.956;2023-03-21T14:22:18;98727.69;;;10.49;84.62
18697;BME280;22617;43.690;27.956;2023-03-21T14:27:23;98727.00;;;10.24;85.95
18697;BME280;22617;43.690;27.956;2023-03-21T14:32:31;98737.47;;;10.07;87.31
18697;BME280;22617;43.690;27.956;2023-03-21T14:37:46;98734.03;;;10.07;87.98
18697;BME280;22617;43.690;27.956;2023-03-21T14:42:54;98735.75;;;10.11;87.24
18697;BME280;22617;43.690;27.956;2023-03-21T14:48:11;98737.50;;;10.03;87.25
18697;BME280;22617;43.690;27.956;2023-03-21T14:53:31;98721.06;;;9.93;88.29
18697;BME280;22617;43.690;27.956;2023-03-21T14:58:38;98727.25;;;9.76;88.38
18697;BME280;22617;43.690;27.956;2023-03-21T15:03:53;98734.19;;;9.74;88.57
18697;BME280;22617;43.690;27.956;2023-03-21T15:09:03;98729.03;;;9.68;90.03
18697;BME280;22617;43.690;27.956;2023-03-21T15:14:13;98715.13;;;9.75;90.34
18697;BME280;22617;43.690;27.956;2023-03-21T15:19:37;98725.56;;;9.72;90.40
18697;BME280;22617;43.690;27.956;2023-03-21T15:24:47;98738.59;;;9.61;90.96
18697;BME280;22617;43.690;27.956;2023-03-21T15:29:54;98729.94;;;9.60;90.78
18697;BME280;22617;43.690;27.956;2023-03-21T15:35:24;98735.97;;;9.67;90.00
18697;BME280;22617;43.690;27.956;2023-03-21T15:40:39;98736.91;;;9.57;90.25
18697;BME280;22617;43.690;27.956;2023-03-21T15:45:46;98737.84;;;9.33;89.90
18697;BME280;22617;43.690;27.956;2023-03-21T15:51:03;98750.00;;;9.27;91.12
18697;BME280;22617;43.690;27.956;2023-03-21T15:56:13;98740.47;;;9.26;91.41
18697;BME280;22617;43.690;27.956;2023-03-21T16:01:20;98739.59;;;9.28;91.61
18697;BME280;22617;43.690;27.956;2023-03-21T16:07:17;98724.06;;;8.98;92.04
18697;BME280;22617;43.690;27.956;2023-03-21T16:12:35;98734.50;;;8.92;92.66
18697;BME280;22617;43.690;27.956;2023-03-21T16:17:54;98731.91;;;8.90;93.30
18697;BME280;22617;43.690;27.956;2023-03-21T16:23:08;98732.78;;;8.85;93.77
18697;BME280;22617;43.690;27.956;2023-03-21T16:28:19;98729.31;;;8.84;93.81
18697;BME280;22617;43.690;27.956;2023-03-21T16:33:23;98730.22;;;8.72;93.92
18697;BME280;22617;43.690;27.956;2023-03-21T16:38:31;98731.94;;;8.66;95.32
18697;BME280;22617;43.690;27.956;2023-03-21T16:43:35;98721.50;;;8.78;95.40
18697;BME280;22617;43.690;27.956;2023-03-21T16:48:49;98723.25;;;8.82;95.20
18697;BME280;22617;43.690;27.956;2023-03-21T16:54:00;98712.88;;;8.78;95.42
18697;BME280;22617;43.690;27.956;2023-03-21T16:59:19;98704.19;;;8.89;94.99
18697;BME280;22617;43.690;27.956;2023-03-21T17:04:26;98705.09;;;8.67;94.06
18697;BME280;22617;43.690;27.956;2023-03-21T17:09:57;98712.88;;;8.65;95.30
18697;BME280;22617;43.690;27.956;2023-03-21T17:15:01;98695.59;;;8.58;95.83
18697;BME280;22617;43.690;27.956;2023-03-21T17:20:18;98694.69;;;8.44;96.39
18697;BME280;22617;43.690;27.956;2023-03-21T17:25:23;98712.03;;;8.42;97.52
18697;BME280;22617;43.690;27.956;2023-03-21T17:30:28;98723.28;;;8.56;97.79
18697;BME280;22617;43.690;27.956;2023-03-21T17:35:32;98730.22;;;8.51;97.42
18697;BME280;22617;43.690;27.956;2023-03-21T17:40:38;98732.75;;;8.27;97.35
18697;BME280;22617;43.690;27.956;2023-03-21T17:45:42;98731.91;;;8.23;98.61
18697;BME280;22617;43.690;27.956;2023-03-21T17:50:46;98725.00;;;8.31;99.18
18697;BME280;22617;43.690;27.956;2023-03-21T17:55:51;98735.38;;;8.36;99.52
18697;BME280;22617;43.690;27.956;2023-03-21T18:00:54;98738.00;;;8.33;99.47
18697;BME280;22617;43.690;27.956;2023-03-21T18:05:58;98738.81;;;8.18;98.92
18697;BME280;22617;43.690;27.956;2023-03-21T18:11:04;98741.41;;;8.14;99.08
18697;BME280;22617;43.690;27.956;2023-03-21T18:16:11;98726.69;;;8.25;99.44
18697;BME280;22617;43.690;27.956;2023-03-21T18:21:16;98700.75;;;8.23;98.98
18697;BME280;22617;43.690;27.956;2023-03-21T18:26:22;98663.56;;;8.20;99.18
18697;BME280;22617;43.690;27.956;2023-03-21T18:31:26;98641.91;;;8.12;99.87
18697;BME280;22617;43.690;27.956;2023-03-21T18:36:30;98625.47;;;8.19;100.00
18697;BME280;22617;43.690;27.956;2023-03-21T18:41:39;98638.44;;;8.22;100.00
18697;BME280;22617;43.690;27.956;2023-03-21T18:46:42;98638.44;;;8.26;100.00
18697;BME280;22617;43.690;27.956;2023-03-21T18:51:48;98638.44;;;8.22;100.00
18697;BME280;22617;43.690;27.956;2023-03-21T18:56:53;98635.84;;;8.26;100.00
18697;BME280;22617;43.690;27.956;2023-03-21T19:02:18;98628.06;;;8.16;99.92
18697;BME280;22617;43.690;27.956;2023-03-21T19:07:24;98634.13;;;8.12;100.00
18697;BME280;22617;43.690;27.956;2023-03-21T19:12:29;98625.47;;;7.99;100.00
18697;BME280;22617;43.690;27.956;2023-03-21T19:17:33;98625.47;;;8.07;100.00
18697;BME280;22617;43.690;27.956;2023-03-21T19:22:56;98630.69;;;8.01;100.00
18697;BME280;22617;43.690;27.956;2023-03-21T19:28:01;98639.28;;;7.87;100.00
18697;BME280;22617;43.690;27.956;2023-03-21T19:33:05;98660.03;;;7.83;100.00
18697;BME280;22617;43.690;27.956;2023-03-21T19:38:09;98645.34;;;7.76;100.00
18697;BME280;22617;43.690;27.956;2023-03-21T19:43:15;98655.72;;;7.82;100.00
18697;BME280;22617;43.690;27.956;2023-03-21T19:48:34;98648.81;;;7.99;100.00
18697;BME280;22617;43.690;27.956;2023-03-21T19:53:39;98643.63;;;7.95;100.00
18697;BME280;22617;43.690;27.956;2023-03-21T19:58:44;98660.06;;;7.91;100.00
18697;BME280;22617;43.690;27.956;2023-03-21T20:03:48;98660.91;;;7.80;100.00
18697;BME280;22617;43.690;27.956;2023-03-21T20:08:53;98661.75;;;7.73;100.00
18697;BME280;22617;43.690;27.956;2023-03-21T20:14:18;98679.03;;;7.56;100.00
18697;BME280;22617;43.690;27.956;2023-03-21T20:19:21;98667.75;;;7.50;100.00
18697;BME280;22617;43.690;27.956;2023-03-21T20:24:25;98684.22;;;7.56;100.00
18697;BME280;22617;43.690;27.956;2023-03-21T20:29:30;98699.75;;;7.52;100.00
18697;BME280;22617;43.690;27.956;2023-03-21T20:34:55;98702.38;;;7.68;100.00
18697;BME280;22617;43.690;27.956;2023-03-21T20:40:18;98693.75;;;7.72;100.00
18697;BME280;22617;43.690;27.956;2023-03-21T20:45:25;98702.38;;;7.62;100.00
18697;BME280;22617;43.690;27.956;2023-03-21T20:50:28;98693.75;;;7.71;100.00
18697;BME280;22617;43.690;27.956;2023-03-21T20:55:34;98695.50;;;7.67;100.00
18697;BME280;22617;43.690;27.956;2023-03-21T21:00:40;98698.09;;;7.67;100.00
18697;BME280;22617;43.690;27.956;2023-03-21T21:05:45;98698.94;;;7.66;100.00
18697;BME280;22617;43.690;27.956;2023-03-21T21:10:49;98711.94;;;7.75;100.00
18697;BME280;22617;43.690;27.956;2023-03-21T21:16:13;98721.41;;;7.69;99.97
18697;BME280;22617;43.690;27.956;2023-03-21T21:21:17;98731.75;;;7.57;100.00
18697;BME280;22617;43.690;27.956;2023-03-21T21:26:21;98742.16;;;7.67;100.00
18697;BME280;22617;43.690;27.956;2023-03-21T21:31:27;98735.22;;;7.57;100.00
18697;BME280;22617;43.690;27.956;2023-03-21T21:36:30;98735.22;;;7.60;100.00
18697;BME280;22617;43.690;27.956;2023-03-21T21:41:34;98735.25;;;7.72;100.00
18697;BME280;22617;43.690;27.956;2023-03-21T21:46:39;98738.69;;;7.68;100.00
18697;BME280;22617;43.690;27.956;2023-03-21T21:51:43;98742.22;;;7.81;100.00
18697;BME280;22617;43.690;27.956;2023-03-21T21:56:48;98749.09;;;7.67;100.00
18697;BME280;22617;43.690;27.956;2023-03-21T22:01:56;98750.78;;;7.68;100.00
18697;BME280;22617;43.690;27.956;2023-03-21T22:07:00;98749.06;;;7.61;100.00
18697;BME280;22617;43.690;27.956;2023-03-21T22:12:07;98751.63;;;7.59;100.00
18697;BME280;22617;43.690;27.956;2023-03-21T22:17:12;98747.28;;;7.49;100.00
18697;BME280;22617;43.690;27.956;2023-03-21T22:22:15;98744.72;;;7.63;100.00
18697;BME280;22617;43.690;27.956;2023-03-21T22:27:19;98742.94;;;7.47;100.00
18697;BME280;22617;43.690;27.956;2023-03-21T22:32:24;98737.75;;;7.50;100.00
18697;BME280;22617;43.690;27.956;2023-03-21T22:37:27;98734.31;;;7.46;100.00
18697;BME280;22617;43.690;27.956;2023-03-21T22:42:32;98730.84;;;7.50;100.00
18697;BME280;22617;43.690;27.956;2023-03-21T22:47:40;98739.50;;;7.49;100.00
18697;BME280;22617;43.690;27.956;2023-03-21T22:52:43;98736.06;;;7.59;100.00
18697;BME280;22617;43.690;27.956;2023-03-21T22:57:47;98738.63;;;7.53;100.00
18697;BME280;22617;43.690;27.956;2023-03-21T23:02:52;98734.34;;;7.55;100.00
18697;BME280;22617;43.690;27.956;2023-03-21T23:07:56;98738.69;;;7.58;100.00
18697;BME280;22617;43.690;27.956;2023-03-21T23:12:59;98729.19;;;7.64;100.00
18697;BME280;22617;43.690;27.956;2023-03-21T23:18:04;98729.16;;;7.58;100.00
18697;BME280;22617;43.690;27.956;2023-03-21T23:23:08;98719.69;;;7.71;100.00
18697;BME280;22617;43.690;27.956;2023-03-21T23:28:11;98711.06;;;7.78;100.00
18697;BME280;22617;43.690;27.956;2023-03-21T23:33:17;98715.38;;;7.67;100.00
18697;BME280;22617;43.690;27.956;2023-03-21T23:38:20;98708.47;;;7.76;99.97
18697;BME280;22617;43.690;27.956;2023-03-21T23:43:23;98702.38;;;7.68;99.23
18697;BME280;22617;43.690;27.956;2023-03-21T23:48:28;98712.78;;;7.67;98.62
18697;BME280;22617;43.690;27.956;2023-03-21T23:53:32;98717.06;;;7.65;98.67
18697;BME280;22617;43.690;27.956;2023-03-21T23:58:35;98709.28;;;7.60;98.67
